createdAt,value
2017-01-08T00:00:25.987Z,0
2017-01-08T00:01:25.961Z,0
2017-01-08T00:02:25.932Z,0
2017-01-08T00:03:25.923Z,0
2017-01-08T00:04:25.900Z,0
2017-01-08T00:05:25.875Z,0
2017-01-08T00:06:25.855Z,0
2017-01-08T00:07:25.832Z,0
2017-01-08T00:08:25.836Z,0
2017-01-08T00:09:25.793Z,0
2017-01-08T00:10:25.771Z,0
2017-01-08T00:11:25.749Z,0
2017-01-08T00:12:25.734Z,0
2017-01-08T00:13:25.711Z,0
2017-01-08T00:14:25.681Z,0
2017-01-08T00:15:25.662Z,0
2017-01-08T00:16:25.646Z,0
2017-01-08T00:17:25.653Z,0
2017-01-08T00:18:25.999Z,0
2017-01-08T00:19:25.579Z,0
2017-01-08T00:20:25.566Z,0
2017-01-08T00:21:25.936Z,0
2017-01-08T00:22:25.525Z,0
2017-01-08T00:23:25.496Z,0
2017-01-08T00:24:25.475Z,0
2017-01-08T00:25:25.456Z,0
2017-01-08T00:26:25.435Z,0
2017-01-08T00:27:25.413Z,0
2017-01-08T00:28:25.391Z,0
2017-01-08T00:29:25.369Z,0
2017-01-08T00:30:25.351Z,0
2017-01-08T00:31:25.332Z,0
2017-01-08T00:32:25.313Z,0
2017-01-08T00:33:25.305Z,0
2017-01-08T00:34:25.272Z,0
2017-01-08T00:35:25.248Z,0
2017-01-08T00:36:25.228Z,0
2017-01-08T00:37:25.203Z,0
2017-01-08T00:38:25.180Z,0
2017-01-08T00:39:25.165Z,0
2017-01-08T00:40:25.152Z,0
2017-01-08T00:41:25.122Z,0
2017-01-08T00:42:25.100Z,0
2017-01-08T00:43:25.077Z,0
2017-01-08T00:44:25.057Z,0
2017-01-08T00:45:25.034Z,0
2017-01-08T00:46:25.016Z,0
2017-01-08T00:47:24.994Z,0
2017-01-08T00:48:24.976Z,0
2017-01-08T00:49:24.958Z,0
2017-01-08T00:50:24.938Z,0
2017-01-08T00:51:24.941Z,0
2017-01-08T00:52:24.889Z,0
2017-01-08T00:53:24.870Z,0
2017-01-08T00:54:24.856Z,0
2017-01-08T00:55:24.854Z,0
2017-01-08T00:56:24.808Z,0
2017-01-08T00:57:24.786Z,0
2017-01-08T00:58:24.772Z,0
2017-01-08T00:59:24.752Z,0
2017-01-08T01:00:24.725Z,0
2017-01-08T01:01:24.702Z,0
2017-01-08T01:02:24.685Z,0
2017-01-08T01:03:24.675Z,0
2017-01-08T01:04:24.647Z,0
2017-01-08T01:05:24.624Z,0
2017-01-08T01:06:24.600Z,0
2017-01-08T01:07:24.596Z,0
2017-01-08T01:08:24.563Z,0
2017-01-08T01:09:24.544Z,0
2017-01-08T01:10:24.513Z,0
2017-01-08T01:11:24.502Z,0
2017-01-08T01:12:24.476Z,0
2017-01-08T01:13:24.853Z,0
2017-01-08T01:14:24.435Z,0
2017-01-08T01:15:24.414Z,0
2017-01-08T01:16:24.398Z,0
2017-01-08T01:17:24.376Z,0
2017-01-08T01:18:24.346Z,0
2017-01-08T01:19:24.332Z,0
2017-01-08T01:20:24.307Z,0
2017-01-08T01:21:24.289Z,0
2017-01-08T01:22:24.272Z,0
2017-01-08T01:23:24.245Z,0
2017-01-08T01:24:24.229Z,0
2017-01-08T01:25:24.206Z,0
2017-01-08T01:26:24.190Z,0
2017-01-08T01:27:24.166Z,0
2017-01-08T01:28:24.144Z,0
2017-01-08T01:29:24.126Z,0
2017-01-08T01:30:24.101Z,0
2017-01-08T01:31:24.081Z,0
2017-01-08T01:32:24.064Z,0
2017-01-08T01:33:24.041Z,0
2017-01-08T01:34:24.017Z,0
2017-01-08T01:35:23.997Z,0
2017-01-08T01:36:23.986Z,0
2017-01-08T01:37:23.964Z,0
2017-01-08T01:38:23.938Z,0
2017-01-08T01:39:23.914Z,0
2017-01-08T01:40:23.908Z,0
2017-01-08T01:41:23.877Z,0
2017-01-08T01:42:23.857Z,0
2017-01-08T01:43:23.833Z,0
2017-01-08T01:44:23.809Z,0
2017-01-08T01:45:23.796Z,0
2017-01-08T01:46:23.800Z,0
2017-01-08T01:47:23.758Z,0
2017-01-08T01:48:23.731Z,0
2017-01-08T01:49:23.710Z,0
2017-01-08T01:50:23.691Z,0
2017-01-08T01:51:23.667Z,0
2017-01-08T01:52:23.653Z,0
2017-01-08T01:53:23.623Z,0
2017-01-08T01:54:24.007Z,0
2017-01-08T01:55:23.591Z,0
2017-01-08T01:56:23.569Z,0
2017-01-08T01:57:23.543Z,0
2017-01-08T01:58:23.573Z,0
2017-01-08T01:59:23.501Z,0
2017-01-08T02:00:23.483Z,0
2017-01-08T02:01:23.463Z,0
2017-01-08T02:02:23.444Z,0
2017-01-08T02:03:23.449Z,0
2017-01-08T02:04:23.402Z,0
2017-01-08T02:05:23.384Z,0
2017-01-08T02:06:23.353Z,0
2017-01-08T02:07:23.337Z,0
2017-01-08T02:08:23.317Z,0
2017-01-08T02:09:23.299Z,0
2017-01-08T02:10:23.279Z,0
2017-01-08T02:11:23.259Z,0
2017-01-08T02:12:23.238Z,0
2017-01-08T02:13:23.216Z,0
2017-01-08T02:14:23.192Z,0
2017-01-08T02:15:23.167Z,0
2017-01-08T02:16:23.158Z,0
2017-01-08T02:17:23.140Z,0
2017-01-08T02:18:23.114Z,0
2017-01-08T02:19:23.093Z,0
2017-01-08T02:20:23.071Z,0
2017-01-08T02:21:23.074Z,0
2017-01-08T02:22:23.034Z,0
2017-01-08T02:23:23.011Z,0
2017-01-08T02:24:22.995Z,0
2017-01-08T02:25:22.972Z,0
2017-01-08T02:26:22.953Z,0
2017-01-08T02:27:22.931Z,0
2017-01-08T02:28:22.912Z,0
2017-01-08T02:29:22.896Z,0
2017-01-08T02:30:22.871Z,0
2017-01-08T02:31:22.859Z,0
2017-01-08T02:32:22.838Z,0
2017-01-08T02:33:22.817Z,0
2017-01-08T02:34:22.796Z,0
2017-01-08T02:35:22.773Z,0
2017-01-08T02:36:22.755Z,0
2017-01-08T02:37:22.790Z,0
2017-01-08T02:38:22.754Z,0
2017-01-08T02:39:22.737Z,0
2017-01-08T02:40:22.713Z,0
2017-01-08T02:41:22.699Z,0
2017-01-08T02:42:22.676Z,0
2017-01-08T02:43:22.652Z,0
2017-01-08T02:44:22.635Z,0
2017-01-08T02:45:22.614Z,0
2017-01-08T02:46:22.593Z,0
2017-01-08T02:47:22.570Z,0
2017-01-08T02:48:22.556Z,0
2017-01-08T02:49:22.542Z,0
2017-01-08T02:50:22.511Z,0
2017-01-08T02:51:22.488Z,0
2017-01-08T02:52:22.472Z,0
2017-01-08T02:53:22.453Z,0
2017-01-08T02:54:22.430Z,0
2017-01-08T02:55:22.410Z,0
2017-01-08T02:56:22.387Z,0
2017-01-08T02:57:22.368Z,0
2017-01-08T02:58:22.349Z,0
2017-01-08T02:59:22.332Z,0
2017-01-08T03:00:22.313Z,0
2017-01-08T03:01:22.286Z,0
2017-01-08T03:02:22.269Z,0
2017-01-08T03:03:22.253Z,0
2017-01-08T03:04:22.235Z,0
2017-01-08T03:05:22.206Z,0
2017-01-08T03:06:22.192Z,0
2017-01-08T03:07:22.162Z,0
2017-01-08T03:08:22.145Z,0
2017-01-08T03:09:22.130Z,0
2017-01-08T03:10:22.105Z,0
2017-01-08T03:11:22.082Z,0
2017-01-08T03:12:22.064Z,0
2017-01-08T03:13:22.040Z,0
2017-01-08T03:14:22.024Z,0
2017-01-08T03:15:22.001Z,0
2017-01-08T03:16:21.994Z,0
2017-01-08T03:17:21.957Z,0
2017-01-08T03:18:21.939Z,0
2017-01-08T03:19:21.916Z,0
2017-01-08T03:20:21.895Z,0
2017-01-08T03:21:21.883Z,0
2017-01-08T03:22:21.855Z,0
2017-01-08T03:23:21.833Z,0
2017-01-08T03:24:21.811Z,0
2017-01-08T03:25:21.796Z,0
2017-01-08T03:26:21.774Z,0
2017-01-08T03:27:21.757Z,0
2017-01-08T03:28:21.736Z,0
2017-01-08T03:29:21.731Z,0
2017-01-08T03:30:21.697Z,0
2017-01-08T03:31:21.699Z,0
2017-01-08T03:32:22.057Z,0
2017-01-08T03:33:21.632Z,0
2017-01-08T03:34:21.822Z,0
2017-01-08T03:35:21.864Z,0
2017-01-08T03:36:21.646Z,0
2017-01-08T03:37:21.841Z,0
2017-01-08T03:38:21.530Z,0
2017-01-08T03:39:21.511Z,0
2017-01-08T03:40:21.493Z,0
2017-01-08T03:41:21.476Z,0
2017-01-08T03:42:21.446Z,0
2017-01-08T03:43:21.433Z,0
2017-01-08T03:44:21.414Z,0
2017-01-08T03:45:21.388Z,0
2017-01-08T03:46:21.376Z,0
2017-01-08T03:47:21.351Z,0
2017-01-08T03:48:21.328Z,0
2017-01-08T03:49:21.310Z,0
2017-01-08T03:50:21.290Z,0
2017-01-08T03:51:21.272Z,0
2017-01-08T03:52:21.247Z,0
2017-01-08T03:53:21.229Z,0
2017-01-08T03:54:21.232Z,0
2017-01-08T03:55:21.189Z,0
2017-01-08T03:56:21.169Z,0
2017-01-08T03:57:21.149Z,0
2017-01-08T03:58:21.134Z,0
2017-01-08T03:59:21.107Z,0
2017-01-08T04:00:21.091Z,0
2017-01-08T04:01:21.071Z,0
2017-01-08T04:02:21.071Z,0
2017-01-08T04:03:21.051Z,0
2017-01-08T04:04:21.004Z,0
2017-01-08T04:05:20.988Z,0
2017-01-08T04:06:20.969Z,0
2017-01-08T04:07:20.972Z,0
2017-01-08T04:08:20.935Z,0
2017-01-08T04:09:20.911Z,0
2017-01-08T04:10:20.891Z,0
2017-01-08T04:11:20.865Z,0
2017-01-08T04:12:20.851Z,0
2017-01-08T04:13:20.826Z,0
2017-01-08T04:14:20.810Z,0
2017-01-08T04:15:20.802Z,0
2017-01-08T04:16:20.767Z,0
2017-01-08T04:17:20.754Z,0
2017-01-08T04:18:20.730Z,0
2017-01-08T04:19:20.707Z,0
2017-01-08T04:20:20.697Z,0
2017-01-08T04:21:20.680Z,0
2017-01-08T04:22:20.652Z,0
2017-01-08T04:23:20.630Z,0
2017-01-08T04:24:21.006Z,0
2017-01-08T04:25:20.595Z,0
2017-01-08T04:26:20.569Z,0
2017-01-08T04:27:20.549Z,0
2017-01-08T04:28:20.531Z,0
2017-01-08T04:29:20.515Z,0
2017-01-08T04:30:20.490Z,0
2017-01-08T04:31:20.473Z,0
2017-01-08T04:32:20.447Z,0
2017-01-08T04:33:20.428Z,0
2017-01-08T04:34:20.410Z,0
2017-01-08T04:35:20.393Z,0
2017-01-08T04:36:20.373Z,0
2017-01-08T04:37:20.350Z,0
2017-01-08T04:38:20.340Z,0
2017-01-08T04:39:20.311Z,0
2017-01-08T04:40:20.294Z,0
2017-01-08T04:41:20.297Z,0
2017-01-08T04:42:20.253Z,0
2017-01-08T04:43:20.231Z,0
2017-01-08T04:44:20.214Z,0
2017-01-08T04:45:20.192Z,0
2017-01-08T04:46:20.173Z,0
2017-01-08T04:47:20.151Z,0
2017-01-08T04:48:20.133Z,0
2017-01-08T04:49:20.112Z,0
2017-01-08T04:50:20.097Z,0
2017-01-08T04:51:20.073Z,0
2017-01-08T04:52:20.062Z,0
2017-01-08T04:53:20.036Z,0
2017-01-08T04:54:20.018Z,0
2017-01-08T04:55:19.992Z,0
2017-01-08T04:56:19.976Z,0
2017-01-08T04:57:20.361Z,0
2017-01-08T04:58:19.942Z,0
2017-01-08T04:59:19.915Z,0
2017-01-08T05:00:19.900Z,0
2017-01-08T05:01:19.882Z,0
2017-01-08T05:02:19.857Z,0
2017-01-08T05:03:20.239Z,0
2017-01-08T05:04:19.815Z,0
2017-01-08T05:05:19.797Z,0
2017-01-08T05:06:19.784Z,0
2017-01-08T05:07:19.761Z,0
2017-01-08T05:08:19.738Z,0
2017-01-08T05:09:19.718Z,0
2017-01-08T05:10:19.699Z,0
2017-01-08T05:11:19.684Z,0
2017-01-08T05:12:19.669Z,0
2017-01-08T05:13:19.646Z,0
2017-01-08T05:14:19.617Z,0
2017-01-08T05:15:19.604Z,0
2017-01-08T05:16:19.582Z,0
2017-01-08T05:17:19.558Z,0
2017-01-08T05:18:19.544Z,0
2017-01-08T05:19:19.526Z,0
2017-01-08T05:20:19.502Z,0
2017-01-08T05:21:19.496Z,0
2017-01-08T05:22:19.466Z,0
2017-01-08T05:23:19.447Z,0
2017-01-08T05:24:19.429Z,0
2017-01-08T05:25:19.815Z,0
2017-01-08T05:26:19.383Z,0
2017-01-08T05:27:19.369Z,0
2017-01-08T05:28:19.351Z,0
2017-01-08T05:29:19.324Z,0
2017-01-08T05:30:19.308Z,0
2017-01-08T05:31:19.290Z,0
2017-01-08T05:32:19.670Z,0
2017-01-08T05:33:19.258Z,0
2017-01-08T05:34:19.228Z,0
2017-01-08T05:35:19.215Z,0
2017-01-08T05:36:19.195Z,0
2017-01-08T05:37:19.172Z,0
2017-01-08T05:38:19.146Z,0
2017-01-08T05:39:19.127Z,0
2017-01-08T05:40:19.137Z,0
2017-01-08T05:41:19.102Z,0
2017-01-08T05:42:19.099Z,0
2017-01-08T05:43:19.051Z,0
2017-01-08T05:44:19.034Z,0
2017-01-08T05:45:19.013Z,0
2017-01-08T05:46:18.999Z,0
2017-01-08T05:47:19.027Z,0
2017-01-08T05:48:18.955Z,0
2017-01-08T05:49:18.937Z,0
2017-01-08T05:50:18.939Z,0
2017-01-08T05:51:18.897Z,0
2017-01-08T05:52:18.875Z,0
2017-01-08T05:53:18.895Z,0
2017-01-08T05:54:18.842Z,0
2017-01-08T05:55:18.816Z,0
2017-01-08T05:56:18.798Z,0
2017-01-08T05:57:18.784Z,0
2017-01-08T05:58:18.758Z,0
2017-01-08T05:59:19.041Z,0
2017-01-08T06:00:19.241Z,0
2017-01-08T06:01:18.703Z,0
2017-01-08T06:02:18.733Z,0
2017-01-08T06:03:18.665Z,0
2017-01-08T06:04:18.642Z,0
2017-01-08T06:05:19.020Z,0
2017-01-08T06:06:18.615Z,0
2017-01-08T06:07:18.584Z,0
2017-01-08T06:08:18.560Z,0
2017-01-08T06:09:18.545Z,0
2017-01-08T06:10:18.523Z,0
2017-01-08T06:11:18.506Z,0
2017-01-08T06:12:18.490Z,0
2017-01-08T06:13:18.470Z,0
2017-01-08T06:14:18.846Z,0
2017-01-08T06:15:18.428Z,0
2017-01-08T06:16:18.411Z,0
2017-01-08T06:17:18.389Z,0
2017-01-08T06:18:18.371Z,0
2017-01-08T06:19:18.359Z,0
2017-01-08T06:20:18.362Z,0
2017-01-08T06:21:18.381Z,0
2017-01-08T06:22:18.291Z,0
2017-01-08T06:23:18.574Z,0
2017-01-08T06:24:18.253Z,0
2017-01-08T06:25:18.237Z,0
2017-01-08T06:26:18.214Z,0
2017-01-08T06:27:18.199Z,0
2017-01-08T06:28:18.176Z,0
2017-01-08T06:29:18.160Z,0
2017-01-08T06:30:18.138Z,0
2017-01-08T06:31:18.116Z,0
2017-01-08T06:32:18.100Z,0
2017-01-08T06:33:18.081Z,0
2017-01-08T06:34:18.090Z,0
2017-01-08T06:35:18.062Z,0
2017-01-08T06:36:18.020Z,0
2017-01-08T06:37:18.006Z,0
2017-01-08T06:38:17.983Z,0
2017-01-08T06:39:17.970Z,0
2017-01-08T06:40:17.953Z,0
2017-01-08T06:41:17.931Z,0
2017-01-08T06:42:17.910Z,0
2017-01-08T06:43:17.891Z,0
2017-01-08T06:44:17.891Z,0
2017-01-08T06:45:17.852Z,0
2017-01-08T06:46:17.827Z,0
2017-01-08T06:47:17.812Z,0
2017-01-08T06:48:17.793Z,0
2017-01-08T06:49:17.777Z,0
2017-01-08T06:50:17.750Z,0
2017-01-08T06:51:17.736Z,0
2017-01-08T06:52:17.718Z,0
2017-01-08T06:53:17.698Z,0
2017-01-08T06:54:17.698Z,0
2017-01-08T06:55:17.655Z,0
2017-01-08T06:56:17.640Z,0
2017-01-08T06:57:17.619Z,0
2017-01-08T06:58:17.606Z,0
2017-01-08T06:59:17.581Z,0
2017-01-08T07:00:17.560Z,0
2017-01-08T07:01:17.545Z,0
2017-01-08T07:02:17.520Z,0
2017-01-08T07:03:17.907Z,0
2017-01-08T07:04:17.485Z,0
2017-01-08T07:05:17.468Z,0
2017-01-08T07:06:17.445Z,0
2017-01-08T07:07:17.432Z,0
2017-01-08T07:08:17.408Z,0
2017-01-08T07:09:17.388Z,0
2017-01-08T07:10:17.367Z,0
2017-01-08T07:11:17.373Z,0
2017-01-08T07:12:17.332Z,0
2017-01-08T07:13:17.318Z,0
2017-01-08T07:14:17.291Z,0
2017-01-08T07:15:17.278Z,0
2017-01-08T07:16:17.255Z,0
2017-01-08T07:17:17.233Z,0
2017-01-08T07:18:17.213Z,0
2017-01-08T07:19:17.397Z,0
2017-01-08T07:20:17.179Z,0
2017-01-08T07:21:17.156Z,5
2017-01-08T07:22:17.539Z,5
2017-01-08T07:23:17.122Z,5
2017-01-08T07:24:17.102Z,5
2017-01-08T07:25:17.086Z,5
2017-01-08T07:26:17.067Z,5
2017-01-08T07:27:17.044Z,5
2017-01-08T07:28:17.027Z,5
2017-01-08T07:29:17.404Z,5
2017-01-08T07:30:16.983Z,5
2017-01-08T07:31:16.969Z,5
2017-01-08T07:32:16.951Z,5
2017-01-08T07:33:16.937Z,5
2017-01-08T07:34:16.912Z,5
2017-01-08T07:35:16.894Z,5
2017-01-08T07:36:16.876Z,5
2017-01-08T07:37:16.895Z,5
2017-01-08T07:38:16.844Z,5
2017-01-08T07:39:16.817Z,5
2017-01-08T07:40:16.815Z,5
2017-01-08T07:41:16.775Z,10
2017-01-08T07:42:16.757Z,10
2017-01-08T07:43:16.738Z,10
2017-01-08T07:44:16.718Z,10
2017-01-08T07:45:16.702Z,10
2017-01-08T07:46:16.687Z,10
2017-01-08T07:47:16.666Z,10
2017-01-08T07:48:16.642Z,10
2017-01-08T07:49:16.623Z,10
2017-01-08T07:50:16.603Z,10
2017-01-08T07:51:16.591Z,10
2017-01-08T07:52:16.742Z,10
2017-01-08T07:53:16.545Z,10
2017-01-08T07:54:16.551Z,10
2017-01-08T07:55:16.509Z,10
2017-01-08T07:56:16.521Z,10
2017-01-08T07:57:16.583Z,10
2017-01-08T07:58:16.459Z,10
2017-01-08T07:59:16.439Z,10
2017-01-08T08:00:16.419Z,10
2017-01-08T08:01:16.401Z,10
2017-01-08T08:02:16.384Z,10
2017-01-08T08:03:16.358Z,10
2017-01-08T08:04:16.345Z,10
2017-01-08T08:05:16.319Z,15
2017-01-08T08:06:16.340Z,15
2017-01-08T08:07:16.283Z,15
2017-01-08T08:08:16.273Z,15
2017-01-08T08:09:16.283Z,15
2017-01-08T08:10:16.227Z,15
2017-01-08T08:11:16.601Z,15
2017-01-08T08:12:16.190Z,15
2017-01-08T08:13:16.178Z,15
2017-01-08T08:14:16.543Z,15
2017-01-08T08:15:16.310Z,15
2017-01-08T08:16:16.383Z,15
2017-01-08T08:17:16.119Z,20
2017-01-08T08:18:17.157Z,20
2017-01-08T08:19:16.757Z,20
2017-01-08T08:20:16.037Z,20
2017-01-08T08:21:16.019Z,20
2017-01-08T08:22:16.018Z,20
2017-01-08T08:23:15.980Z,20
2017-01-08T08:24:15.964Z,20
2017-01-08T08:25:15.942Z,20
2017-01-08T08:26:16.327Z,20
2017-01-08T08:27:15.901Z,20
2017-01-08T08:28:16.106Z,20
2017-01-08T08:29:16.216Z,20
2017-01-08T08:30:15.850Z,20
2017-01-08T08:31:15.860Z,20
2017-01-08T08:32:15.817Z,20
2017-01-08T08:33:15.813Z,20
2017-01-08T08:34:15.773Z,20
2017-01-08T08:35:15.757Z,20
2017-01-08T08:36:15.728Z,25
2017-01-08T08:37:15.719Z,25
2017-01-08T08:38:15.726Z,25
2017-01-08T08:39:15.760Z,25
2017-01-08T08:40:15.659Z,25
2017-01-08T08:41:15.646Z,25
2017-01-08T08:42:15.626Z,25
2017-01-08T08:43:15.602Z,25
2017-01-08T08:44:15.586Z,25
2017-01-08T08:45:15.573Z,25
2017-01-08T08:46:15.553Z,30
2017-01-08T08:47:15.535Z,30
2017-01-08T08:48:15.510Z,30
2017-01-08T08:49:15.665Z,30
2017-01-08T08:50:15.489Z,25
2017-01-08T08:51:15.458Z,25
2017-01-08T08:52:15.712Z,30
2017-01-08T08:53:16.002Z,30
2017-01-08T08:54:15.417Z,30
2017-01-08T08:55:15.789Z,25
2017-01-08T08:56:15.364Z,30
2017-01-08T08:57:15.364Z,30
2017-01-08T08:58:15.339Z,30
2017-01-08T08:59:15.326Z,30
2017-01-08T09:00:15.296Z,30
2017-01-08T09:01:15.276Z,35
2017-01-08T09:02:15.270Z,35
2017-01-08T09:03:15.257Z,35
2017-01-08T09:04:15.217Z,35
2017-01-08T09:05:15.200Z,35
2017-01-08T09:06:15.192Z,35
2017-01-08T09:07:15.165Z,35
2017-01-08T09:08:15.142Z,35
2017-01-08T09:09:15.138Z,35
2017-01-08T09:10:15.129Z,35
2017-01-08T09:11:15.095Z,35
2017-01-08T09:12:15.074Z,35
2017-01-08T09:13:15.057Z,35
2017-01-08T09:14:15.040Z,40
2017-01-08T09:15:15.018Z,40
2017-01-08T09:16:15.002Z,40
2017-01-08T09:17:15.388Z,40
2017-01-08T09:18:15.992Z,40
2017-01-08T09:19:15.393Z,40
2017-01-08T09:20:15.127Z,40
2017-01-08T09:21:14.910Z,40
2017-01-08T09:22:14.894Z,40
2017-01-08T09:23:14.877Z,40
2017-01-08T09:24:14.856Z,40
2017-01-08T09:25:14.839Z,40
2017-01-08T09:26:14.820Z,40
2017-01-08T09:27:14.801Z,45
2017-01-08T09:28:14.787Z,45
2017-01-08T09:29:14.766Z,45
2017-01-08T09:30:14.751Z,45
2017-01-08T09:31:14.729Z,45
2017-01-08T09:32:14.732Z,45
2017-01-08T09:33:14.704Z,50
2017-01-08T09:34:14.674Z,50
2017-01-08T09:35:14.661Z,55
2017-01-08T09:36:14.640Z,55
2017-01-08T09:37:14.625Z,55
2017-01-08T09:38:14.611Z,55
2017-01-08T09:39:14.590Z,50
2017-01-08T09:40:14.576Z,50
2017-01-08T09:41:14.555Z,45
2017-01-08T09:42:14.538Z,45
2017-01-08T09:43:14.516Z,45
2017-01-08T09:44:14.504Z,45
2017-01-08T09:45:14.478Z,45
2017-01-08T09:46:14.468Z,45
2017-01-08T09:47:14.445Z,45
2017-01-08T09:48:14.428Z,50
2017-01-08T09:49:14.412Z,50
2017-01-08T09:50:14.394Z,50
2017-01-08T09:51:14.372Z,50
2017-01-08T09:52:14.361Z,55
2017-01-08T09:53:14.340Z,55
2017-01-08T09:54:14.318Z,55
2017-01-08T09:55:14.306Z,55
2017-01-08T09:56:14.290Z,55
2017-01-08T09:57:14.279Z,55
2017-01-08T09:58:14.651Z,55
2017-01-08T09:59:14.240Z,55
2017-01-08T10:00:14.219Z,55
2017-01-08T10:01:14.202Z,55
2017-01-08T10:02:14.179Z,55
2017-01-08T10:03:14.164Z,55
2017-01-08T10:04:14.213Z,55
2017-01-08T10:05:14.127Z,55
2017-01-08T10:06:14.114Z,60
2017-01-08T10:07:14.091Z,60
2017-01-08T10:08:14.075Z,60
2017-01-08T10:09:14.059Z,60
2017-01-08T10:10:14.149Z,60
2017-01-08T10:11:14.028Z,60
2017-01-08T10:12:14.408Z,60
2017-01-08T10:13:13.993Z,60
2017-01-08T10:14:13.971Z,60
2017-01-08T10:15:13.950Z,60
2017-01-08T10:16:13.936Z,60
2017-01-08T10:17:13.919Z,60
2017-01-08T10:18:14.307Z,60
2017-01-08T10:19:13.882Z,60
2017-01-08T10:20:13.863Z,60
2017-01-08T10:21:13.852Z,60
2017-01-08T10:22:13.840Z,60
2017-01-08T10:23:13.815Z,60
2017-01-08T10:24:13.805Z,60
2017-01-08T10:25:13.778Z,60
2017-01-08T10:26:13.763Z,60
2017-01-08T10:27:13.749Z,60
2017-01-08T10:28:13.732Z,65
2017-01-08T10:29:13.708Z,65
2017-01-08T10:30:14.292Z,65
2017-01-08T10:31:13.677Z,65
2017-01-08T10:32:13.663Z,65
2017-01-08T10:33:13.645Z,65
2017-01-08T10:34:13.626Z,65
2017-01-08T10:35:13.611Z,65
2017-01-08T10:36:13.593Z,65
2017-01-08T10:37:13.579Z,65
2017-01-08T10:38:13.561Z,65
2017-01-08T10:39:13.539Z,70
2017-01-08T10:40:13.526Z,70
2017-01-08T10:41:13.507Z,70
2017-01-08T10:42:13.493Z,70
2017-01-08T10:43:13.472Z,70
2017-01-08T10:44:13.483Z,70
2017-01-08T10:45:13.437Z,75
2017-01-08T10:46:13.425Z,75
2017-01-08T10:47:13.409Z,75
2017-01-08T10:48:13.389Z,75
2017-01-08T10:49:13.372Z,75
2017-01-08T10:50:13.356Z,75
2017-01-08T10:51:13.336Z,75
2017-01-08T10:52:13.319Z,75
2017-01-08T10:53:13.306Z,75
2017-01-08T10:54:13.287Z,70
2017-01-08T10:55:13.275Z,70
2017-01-08T10:56:13.251Z,70
2017-01-08T10:57:13.640Z,70
2017-01-08T10:58:13.225Z,70
2017-01-08T10:59:13.605Z,70
2017-01-08T11:00:13.187Z,70
2017-01-08T11:01:13.194Z,70
2017-01-08T11:02:13.154Z,70
2017-01-08T11:03:13.140Z,70
2017-01-08T11:04:13.123Z,70
2017-01-08T11:05:13.101Z,70
2017-01-08T11:06:13.089Z,70
2017-01-08T11:07:13.083Z,70
2017-01-08T11:08:13.050Z,70
2017-01-08T11:09:13.046Z,70
2017-01-08T11:10:13.026Z,70
2017-01-08T11:11:13.009Z,70
2017-01-08T11:12:12.991Z,70
2017-01-08T11:13:12.968Z,75
2017-01-08T11:14:12.954Z,75
2017-01-08T11:15:12.937Z,75
2017-01-08T11:16:12.924Z,75
2017-01-08T11:17:12.899Z,75
2017-01-08T11:18:12.891Z,75
2017-01-08T11:19:12.874Z,75
2017-01-08T11:20:12.851Z,75
2017-01-08T11:21:12.835Z,75
2017-01-08T11:22:12.822Z,80
2017-01-08T11:23:12.805Z,80
2017-01-08T11:24:12.791Z,75
2017-01-08T11:25:12.773Z,75
2017-01-08T11:26:12.761Z,75
2017-01-08T11:27:12.753Z,75
2017-01-08T11:28:12.722Z,75
2017-01-08T11:29:12.709Z,75
2017-01-08T11:30:12.689Z,75
2017-01-08T11:31:12.672Z,80
2017-01-08T11:32:12.655Z,75
2017-01-08T11:33:12.644Z,75
2017-01-08T11:34:13.024Z,75
2017-01-08T11:35:12.609Z,75
2017-01-08T11:36:12.592Z,75
2017-01-08T11:37:12.578Z,75
2017-01-08T11:38:12.560Z,75
2017-01-08T11:39:12.538Z,80
2017-01-08T11:40:12.923Z,75
2017-01-08T11:41:12.513Z,75
2017-01-08T11:42:12.493Z,75
2017-01-08T11:43:12.481Z,80
2017-01-08T11:44:12.462Z,75
2017-01-08T11:45:12.443Z,75
2017-01-08T11:46:12.435Z,80
2017-01-08T11:47:12.418Z,80
2017-01-08T11:48:12.394Z,75
2017-01-08T11:49:12.379Z,75
2017-01-08T11:50:12.365Z,70
2017-01-08T11:51:12.347Z,70
2017-01-08T11:52:12.331Z,70
2017-01-08T11:53:12.319Z,70
2017-01-08T11:54:12.305Z,70
2017-01-08T11:55:12.290Z,70
2017-01-08T11:56:12.272Z,65
2017-01-08T11:57:12.252Z,65
2017-01-08T11:58:12.236Z,60
2017-01-08T11:59:12.217Z,60
2017-01-08T12:00:12.248Z,60
2017-01-08T12:01:12.189Z,65
2017-01-08T12:02:12.172Z,65
2017-01-08T12:03:12.152Z,65
2017-01-08T12:04:12.139Z,65
2017-01-08T12:05:12.138Z,65
2017-01-08T12:06:12.106Z,65
2017-01-08T12:07:12.092Z,65
2017-01-08T12:08:12.078Z,60
2017-01-08T12:09:12.056Z,60
2017-01-08T12:10:12.080Z,60
2017-01-08T12:11:12.025Z,65
2017-01-08T12:12:12.006Z,65
2017-01-08T12:13:11.991Z,65
2017-01-08T12:14:11.978Z,65
2017-01-08T12:15:11.960Z,65
2017-01-08T12:16:11.944Z,60
2017-01-08T12:17:11.930Z,60
2017-01-08T12:18:11.917Z,60
2017-01-08T12:19:11.894Z,60
2017-01-08T12:20:11.893Z,60
2017-01-08T12:21:11.864Z,55
2017-01-08T12:22:11.848Z,55
2017-01-08T12:23:11.832Z,55
2017-01-08T12:24:11.818Z,55
2017-01-08T12:25:11.806Z,55
2017-01-08T12:26:11.783Z,50
2017-01-08T12:27:11.765Z,50
2017-01-08T12:28:11.745Z,55
2017-01-08T12:29:11.737Z,55
2017-01-08T12:30:11.724Z,55
2017-01-08T12:31:11.700Z,55
2017-01-08T12:32:11.689Z,55
2017-01-08T12:33:11.663Z,55
2017-01-08T12:34:11.651Z,55
2017-01-08T12:35:11.638Z,55
2017-01-08T12:36:11.618Z,60
2017-01-08T12:37:11.601Z,55
2017-01-08T12:38:11.583Z,55
2017-01-08T12:39:11.594Z,55
2017-01-08T12:40:11.617Z,55
2017-01-08T12:41:11.752Z,55
2017-01-08T12:42:11.519Z,55
2017-01-08T12:43:11.507Z,55
2017-01-08T12:44:11.506Z,60
2017-01-08T12:45:11.470Z,60
2017-01-08T12:46:11.511Z,60
2017-01-08T12:47:11.438Z,60
2017-01-08T12:48:11.816Z,60
2017-01-08T12:49:11.411Z,65
2017-01-08T12:50:11.383Z,65
2017-01-08T12:51:11.372Z,65
2017-01-08T12:52:11.357Z,65
2017-01-08T12:53:11.339Z,65
2017-01-08T12:54:11.318Z,60
2017-01-08T12:56:41.046Z,60
2017-01-08T12:57:11.266Z,60
2017-01-08T12:58:11.247Z,60
2017-01-08T12:59:11.230Z,60
2017-01-08T13:00:11.211Z,60
2017-01-08T13:01:11.199Z,60
2017-01-08T13:02:11.181Z,65
2017-01-08T13:03:11.167Z,65
2017-01-08T13:04:11.154Z,60
2017-01-08T13:05:11.130Z,60
2017-01-08T13:06:11.116Z,60
2017-01-08T13:07:11.096Z,55
2017-01-08T13:08:11.083Z,55
2017-01-08T13:09:11.065Z,55
2017-01-08T13:10:11.180Z,55
2017-01-08T13:11:11.156Z,55
2017-01-08T13:12:11.224Z,55
2017-01-08T13:13:11.175Z,55
2017-01-08T13:14:11.626Z,55
2017-01-08T13:15:11.251Z,55
2017-01-08T13:16:11.544Z,55
2017-01-08T13:17:11.122Z,55
2017-01-08T13:18:11.421Z,50
2017-01-08T13:19:11.289Z,50
2017-01-08T13:20:11.380Z,50
2017-01-08T13:21:11.218Z,50
2017-01-08T13:22:11.482Z,50
2017-01-08T13:23:10.917Z,50
2017-01-08T13:24:10.879Z,50
2017-01-08T13:25:10.800Z,50
2017-01-08T13:26:10.784Z,50
2017-01-08T13:27:10.922Z,50
2017-01-08T13:28:10.752Z,50
2017-01-08T13:29:10.727Z,50
2017-01-08T13:30:10.717Z,50
2017-01-08T13:31:10.705Z,50
2017-01-08T13:32:11.091Z,50
2017-01-08T13:33:10.756Z,50
2017-01-08T13:34:10.772Z,50
2017-01-08T13:35:10.856Z,45
2017-01-08T13:36:10.967Z,45
2017-01-08T13:37:10.769Z,45
2017-01-08T13:38:10.831Z,45
2017-01-08T13:39:10.941Z,45
2017-01-08T13:40:10.968Z,45
2017-01-08T13:41:10.768Z,45
2017-01-08T13:42:10.693Z,40
2017-01-08T13:43:10.753Z,40
2017-01-08T13:44:10.644Z,40
2017-01-08T13:45:10.521Z,40
2017-01-08T13:46:10.453Z,40
2017-01-08T13:47:10.434Z,35
2017-01-08T13:48:10.423Z,35
2017-01-08T13:49:10.411Z,35
2017-01-08T13:50:10.392Z,35
2017-01-08T13:51:10.372Z,35
2017-01-08T13:52:10.379Z,35
2017-01-08T13:53:10.667Z,30
2017-01-08T13:54:10.581Z,30
2017-01-08T13:55:10.719Z,30
2017-01-08T13:56:10.526Z,30
2017-01-08T13:57:10.428Z,25
2017-01-08T13:58:10.344Z,30
2017-01-08T13:59:10.279Z,30
2017-01-08T14:00:10.232Z,30
2017-01-08T14:01:10.204Z,30
2017-01-08T14:02:10.188Z,30
2017-01-08T14:03:10.176Z,30
2017-01-08T14:04:10.151Z,30
2017-01-08T14:05:10.547Z,30
2017-01-08T14:06:10.117Z,30
2017-01-08T14:07:10.103Z,30
2017-01-08T14:08:10.137Z,30
2017-01-08T14:09:10.175Z,30
2017-01-08T14:10:10.183Z,30
2017-01-08T14:11:10.092Z,30
2017-01-08T14:12:10.212Z,25
2017-01-08T14:13:10.416Z,25
2017-01-08T14:14:10.325Z,25
2017-01-08T14:15:10.325Z,25
2017-01-08T14:16:10.355Z,25
2017-01-08T14:17:10.235Z,25
2017-01-08T14:18:10.163Z,25
2017-01-08T14:19:10.002Z,25
2017-01-08T14:20:09.983Z,20
2017-01-08T14:21:09.870Z,20
2017-01-08T14:22:09.862Z,20
2017-01-08T14:23:09.838Z,20
2017-01-08T14:24:09.813Z,20
2017-01-08T14:25:09.806Z,20
2017-01-08T14:26:09.785Z,20
2017-01-08T14:27:09.765Z,20
2017-01-08T14:28:09.779Z,15
2017-01-08T14:29:09.736Z,15
2017-01-08T14:30:09.723Z,15
2017-01-08T14:31:09.699Z,15
2017-01-08T14:32:09.684Z,15
2017-01-08T14:33:09.664Z,15